METAR Data
IDs: Format: Raw Decoded Include TAF

Data at: 0019 UTC 30 May 2020

K4R5 292355Z AUTO 31008G14KT 270V340 10SM OVC050 15/07 A3008 RMK AO2 T01500066
K4R5 292335Z AUTO 31005KT 10SM OVC050 15/07 A3008 RMK AO2 T01510072
K4R5 292315Z AUTO 29007KT 10SM SCT044 OVC050 15/07 A3008 RMK AO2 T01500072
K4R5 292255Z AUTO 30007KT 10SM SCT044 OVC050 16/08 A3007 RMK AO2 T01550075
K4R5 292235Z AUTO 30007KT 10SM SCT044 OVC050 16/07 A3007 RMK AO2 T01560072
K4R5 292215Z AUTO 30006KT 10SM BKN044 OVC050 16/08 A3007 RMK AO2 T01550076
K4R5 292155Z AUTO 30008KT 10SM OVC045 15/08 A3007 RMK AO2 T01530076
K4R5 292135Z AUTO 31005KT 10SM OVC049 15/08 A3007 RMK AO2 T01520077
K4R5 292115Z AUTO 32007KT 10SM SCT039 OVC049 15/07 A3006 RMK AO2 T01520074
K4R5 292055Z AUTO 32008G18KT 10SM SCT039 OVC049 15/07 A3006 RMK AO2 T01520074
K4R5 292035Z AUTO 30007G14KT 270V330 10SM SCT037 OVC047 15/08 A3006 RMK AO2 T01500078
K4R5 292015Z AUTO 30007KT 270V340 10SM BKN037 OVC045 15/08 A3005 RMK AO2 T01470078
K4R5 291955Z AUTO 32008KT 280V350 10SM SCT037 OVC045 15/08 A3005 RMK AO2 T01490077
K4R5 291935Z AUTO 34006KT 10SM SCT039 OVC045 16/08 A3004 RMK AO2 T01560083
K4R5 291915Z AUTO 33008G15KT 300V010 10SM SCT033 BKN040 OVC050 16/09 A3004 RMK AO2 T01560085
K4R5 291855Z AUTO 32009G16KT 290V350 10SM BKN033 BKN040 OVC050 15/08 A3004 RMK AO2 T01520084
K4R5 291835Z AUTO 31010KT 10SM SCT031 SCT048 OVC050 15/08 A3003 RMK AO2 T01490083
K4R5 291815Z AUTO 31008KT 10SM SCT029 BKN043 OVC050 15/09 A3003 RMK AO2 T01450086
K4R5 291755Z AUTO 32006KT 10SM SCT031 BKN041 OVC065 14/09 A3003 RMK AO2 T01440087
K4R5 291735Z AUTO 31007G14KT 280V340 10SM SCT031 BKN039 OVC065 15/09 A3003 RMK AO2 T01470090
K4R5 291715Z AUTO 30007KT 260V340 10SM SCT033 BKN039 OVC055 14/09 A3003 RMK AO2 T01360089
K4R5 291655Z AUTO 29008KT 10SM SCT029 BKN040 OVC047 12/09 A3002 RMK AO2 T01230088
K4R5 291635Z AUTO 31007G14KT 270V330 10SM SCT022 BKN029 OVC070 13/09 A3002 RMK AO2 T01260089
K4R5 291615Z AUTO 30007G17KT 260V320 10SM SCT024 OVC029 13/09 A3001 RMK AO2 T01260086
K4R5 291555Z AUTO 31008KT 10SM OVC028 13/08 A3001 RMK AO2 T01270083
K4R5 291535Z AUTO 29008KT 10SM OVC028 12/08 A3000 RMK AO2 T01230082
K4R5 291515Z AUTO 29008G16KT 10SM OVC031 12/08 A3000 RMK AO2 T01240083
K4R5 291455Z AUTO 28008KT 250V310 10SM OVC029 12/08 A3000 RMK AO2 T01230082
K4R5 291435Z AUTO 27008KT 240V300 10SM BKN029 OVC034 12/08 A3000 RMK AO2 T01160079
K4R5 291415Z AUTO 28006KT 10SM OVC033 12/08 A3000 RMK AO2 T01170078
K4R5 291355Z AUTO 27008G14KT 230V300 10SM BKN033 OVC044 12/08 A2999 RMK AO2 T01150075
K4R5 291335Z AUTO 28010G15KT 10SM SCT036 BKN044 OVC065 12/08 A2999 RMK AO2 T01150076
K4R5 291315Z AUTO 27009G14KT 10SM SCT042 BKN050 OVC065 11/07 A2998 RMK AO2 T01140074
K4R5 291255Z AUTO 28009G14KT 10SM SCT042 SCT050 OVC080 12/07 A2998 RMK AO2 T01150072
K4R5 291235Z AUTO 28008G16KT 10SM SCT055 OVC080 12/07 A2998 RMK AO2 T01170070
K4R5 291215Z AUTO 28005G14KT 10SM SCT031 SCT042 OVC080 12/07 A2997 RMK AO2 T01200071
K4R5 291155Z AUTO 29009KT 260V320 10SM SCT031 SCT037 OVC055 12/07 A2997 RMK AO2 T01160069
K4R5 291135Z AUTO 28009KT 10SM OVC055 12/07 A2996 RMK AO2 T01160068
K4R5 291115Z AUTO 29007G14KT 10SM OVC049 12/07 A2996 RMK AO2 T01150069
K4R5 291055Z AUTO 27006KT 10SM SCT049 SCT110 11/07 A2995 RMK AO2 T01100067
K4R5 291035Z AUTO 28006KT 10SM SCT047 SCT120 11/07 A2995 RMK AO2 T01060065
K4R5 291015Z AUTO 28008KT 10SM SCT044 SCT120 11/07 A2994 RMK AO2 T01090066
K4R5 290955Z AUTO 28007KT 10SM SCT040 SCT120 11/07 A2993 RMK AO2 T01100065
K4R5 290935Z AUTO 29005KT 10SM BKN040 11/07 A2993 RMK AO2 T01120067
K4R5 290855Z AUTO 27004KT 10SM SCT038 11/07 A2993 RMK AO2 T01070065
K4R5 290835Z AUTO 27003KT 10SM SCT080 11/07 A2993 RMK AO2 T01100065
K4R5 290815Z AUTO 27004KT 10SM BKN080 11/07 A2993 RMK AO2 T01110065
K4R5 290755Z AUTO 28003KT 10SM SCT060 SCT080 11/07 A2993 RMK AO2 T01140068
K4R5 290735Z AUTO 28004KT 10SM BKN060 12/07 A2993 RMK AO2 T01170066
K4R5 290715Z AUTO 29004KT 10SM BKN060 12/07 A2992 RMK AO2 T01160066
K4R5 290655Z AUTO 29004KT 10SM SCT060 12/06 A2992 RMK AO2 T01170064
K4R5 290635Z AUTO 28004KT 10SM CLR 12/06 A2992 RMK AO2 T01190062
K4R5 290615Z AUTO 27004KT 10SM CLR 12/06 A2992 RMK AO2 T01200060
K4R5 290555Z AUTO 28004KT 10SM CLR 13/06 A2992 RMK AO2 T01250060
K4R5 290535Z AUTO 28008KT 10SM CLR 13/06 A2992 RMK AO2 T01260058
K4R5 290515Z AUTO 30006KT 10SM CLR 13/06 A2991 RMK AO2 T01310059
K4R5 290455Z AUTO 30009G14KT 10SM CLR 14/06 A2991 RMK AO2 T01350060
K4R5 290435Z AUTO 29009G15KT 10SM CLR 14/06 A2991 RMK AO2 T01400060
K4R5 290415Z AUTO 29006KT 10SM CLR 15/06 A2990 RMK AO2 T01450060
K4R5 290355Z AUTO 31007KT 10SM CLR 15/06 A2990 RMK AO2 T01450061
K4R5 290335Z AUTO 31007KT 280V350 10SM CLR 15/06 A2990 RMK AO2 T01460063
K4R5 290315Z AUTO 31010G17KT 10SM CLR 15/07 A2989 RMK AO2 T01500065
K4R5 290255Z AUTO 31010G20KT 280V340 10SM CLR 16/07 A2988 RMK AO2 T01550067
K4R5 290235Z AUTO 30011G18KT 270V330 10SM CLR 16/07 A2987 RMK AO2 T01620070
K4R5 290215Z AUTO 30009G16KT 270V340 10SM CLR 17/07 A2986 RMK AO2 T01720070
K4R5 290155Z AUTO 29008G15KT 250V320 10SM CLR 18/07 A2985 RMK AO2 T01770070
K4R5 290135Z AUTO 30008G15KT 10SM CLR 19/07 A2984 RMK AO2 T01850066
K4R5 290115Z AUTO 29012G20KT 10SM CLR 20/06 A2983 RMK AO2 T01950061
K4R5 290055Z AUTO 28009G15KT 10SM CLR 20/06 A2982 RMK AO2 T02020055
K4R5 290035Z AUTO 28009KT 10SM CLR 21/05 A2982 RMK AO2 T02100050
K4R5 290015Z AUTO 29006G16KT 10SM CLR 22/04 A2981 RMK AO2 T02170042
K4R5 282355Z AUTO 28008G17KT 250V320 10SM CLR 23/03 A2980 RMK AO2 T02250033
K4R5 282335Z AUTO 28010G15KT 10SM CLR 23/03 A2980 RMK AO2 T02280031
K4R5 282315Z AUTO 28007KT 10SM CLR 23/04 A2979 RMK AO2 T02290037
K4R5 282255Z AUTO 28010G15KT 10SM CLR 24/03 A2979 RMK AO2 T02350028
K4R5 282235Z AUTO 29007G19KT 240V310 10SM CLR 24/02 A2978 RMK AO2 T02350024
K4R5 282215Z AUTO 27009G15KT 10SM CLR 24/02 A2979 RMK AO2 T02400018
K4R5 282155Z AUTO 26007G14KT 10SM CLR 25/03 A2979 RMK AO2 T02480034
K4R5 282135Z AUTO 28006G18KT 10SM CLR 24/02 A2979 RMK AO2 T02420021
K4R5 282115Z AUTO 28008KT 10SM CLR 24/04 A2979 RMK AO2 T02380035
K4R5 282055Z AUTO 27008KT 10SM CLR 25/03 A2980 RMK AO2 T02450032
K4R5 282035Z AUTO 28004KT 10SM CLR 24/03 A2980 RMK AO2 T02420030
K4R5 282015Z AUTO 30007G15KT 10SM CLR 25/03 A2981 RMK AO2 T02460026
K4R5 281955Z AUTO 25005KT 10SM CLR 25/05 A2982 RMK AO2 T02460046
K4R5 281935Z AUTO 27004KT 10SM CLR 24/04 A2982 RMK AO2 T02350040
K4R5 281915Z AUTO 28007KT 10SM CLR 24/04 A2983 RMK AO2 T02360044
K4R5 281855Z AUTO 33003KT 10SM CLR 24/06 A2984 RMK AO2 T02350064
K4R5 281835Z AUTO 28004KT 10SM CLR 23/05 A2984 RMK AO2 T02330049
K4R5 281815Z AUTO 28003KT 10SM CLR 22/06 A2985 RMK AO2 T02230056
K4R5 281755Z AUTO 28004KT 10SM CLR 21/07 A2986 RMK AO2 T02090070
K4R5 281735Z AUTO 29005KT 10SM CLR 20/07 A2987 RMK AO2 T02020071
K4R5 281715Z AUTO 28003KT 10SM SCT120 19/08 A2987 RMK AO2 T01900077
K4R5 281655Z AUTO 00000KT 10SM SCT100 BKN120 18/09 A2988 RMK AO2 T01780087
K4R5 281255Z AUTO 31004KT 10SM SCT100 SCT120 18/10 A2989 RMK AO2 T01830097
K4R5 281235Z AUTO 27003KT 10SM OVC100 18/10 A2988 RMK AO2 T01830100